sensor_id;sensor_type;location;lat;lon;timestamp;pressure;altitude;pressure_sealevel;temperature;humidity
47726;BME280;33483;48.294;16.388;2022-07-06T00:02:02;99806.78;;;16.55;100.00
47726;BME280;33483;48.294;16.388;2022-07-06T00:04:30;99810.53;;;16.57;100.00
47726;BME280;33483;48.294;16.388;2022-07-06T00:06:57;99808.28;;;16.56;100.00
47726;BME280;33483;48.294;16.388;2022-07-06T00:09:24;99810.91;;;16.54;100.00
47726;BME280;33483;48.294;16.388;2022-07-06T00:11:51;99808.09;;;16.54;100.00
47726;BME280;33483;48.294;16.388;2022-07-06T00:14:18;99801.56;;;16.51;100.00
47726;BME280;33483;48.294;16.388;2022-07-06T00:16:45;99797.66;;;16.47;100.00
47726;BME280;33483;48.294;16.388;2022-07-06T00:19:13;99800.09;;;16.50;100.00
47726;BME280;33483;48.294;16.388;2022-07-06T00:21:40;99803.81;;;16.53;100.00
47726;BME280;33483;48.294;16.388;2022-07-06T00:24:08;99806.59;;;16.53;100.00
47726;BME280;33483;48.294;16.388;2022-07-06T00:26:35;99807.91;;;16.52;100.00
47726;BME280;33483;48.294;16.388;2022-07-06T00:29:02;99807.16;;;16.51;100.00
47726;BME280;33483;48.294;16.388;2022-07-06T00:31:29;99806.97;;;16.49;100.00
47726;BME280;33483;48.294;16.388;2022-07-06T00:33:57;99813.31;;;16.50;100.00
47726;BME280;33483;48.294;16.388;2022-07-06T00:36:27;99815.94;;;16.55;100.00
47726;BME280;33483;48.294;16.388;2022-07-06T00:38:54;99825.28;;;16.58;100.00
47726;BME280;33483;48.294;16.388;2022-07-06T00:41:22;99836.47;;;16.58;100.00
47726;BME280;33483;48.294;16.388;2022-07-06T00:43:53;99835.53;;;16.55;100.00
47726;BME280;33483;48.294;16.388;2022-07-06T00:46:27;99829.94;;;16.55;100.00
47726;BME280;33483;48.294;16.388;2022-07-06T00:48:57;99837.56;;;16.55;100.00
47726;BME280;33483;48.294;16.388;2022-07-06T00:51:29;99841.13;;;16.63;100.00
47726;BME280;33483;48.294;16.388;2022-07-06T00:54:02;99837.72;;;16.72;100.00
47726;BME280;33483;48.294;16.388;2022-07-06T00:56:31;99847.25;;;16.76;100.00
47726;BME280;33483;48.294;16.388;2022-07-06T00:59:00;99845.91;;;16.93;100.00
47726;BME280;33483;48.294;16.388;2022-07-06T01:01:29;99849.56;;;17.10;100.00
47726;BME280;33483;48.294;16.388;2022-07-06T01:03:56;99849.88;;;17.29;100.00
47726;BME280;33483;48.294;16.388;2022-07-06T01:06:24;99840.84;;;17.38;100.00
47726;BME280;33483;48.294;16.388;2022-07-06T01:08:52;99842.50;;;17.49;100.00
47726;BME280;33483;48.294;16.388;2022-07-06T01:11:21;99833.84;;;17.62;100.00
47726;BME280;33483;48.294;16.388;2022-07-06T01:13:53;99831.56;;;17.68;100.00
47726;BME280;33483;48.294;16.388;2022-07-06T01:16:21;99833.97;;;17.71;100.00
47726;BME280;33483;48.294;16.388;2022-07-06T01:18:48;99829.88;;;17.72;100.00
47726;BME280;33483;48.294;16.388;2022-07-06T01:21:16;99833.34;;;17.80;100.00
47726;BME280;33483;48.294;16.388;2022-07-06T01:23:47;99835.03;;;17.83;100.00
47726;BME280;33483;48.294;16.388;2022-07-06T01:26:17;99820.78;;;17.89;100.00
47726;BME280;33483;48.294;16.388;2022-07-06T01:28:51;99829.72;;;17.95;100.00
47726;BME280;33483;48.294;16.388;2022-07-06T01:33:55;99826.28;;;18.04;100.00
47726;BME280;33483;48.294;16.388;2022-07-06T01:36:23;99816.38;;;18.03;100.00
47726;BME280;33483;48.294;16.388;2022-07-06T01:38:55;99817.91;;;17.96;100.00
47726;BME280;33483;48.294;16.388;2022-07-06T01:41:25;99817.75;;;17.94;100.00
47726;BME280;33483;48.294;16.388;2022-07-06T01:43:55;99814.44;;;17.88;100.00
47726;BME280;33483;48.294;16.388;2022-07-06T01:46:23;99816.72;;;17.82;100.00
47726;BME280;33483;48.294;16.388;2022-07-06T01:48:52;99808.13;;;17.80;100.00
47726;BME280;33483;48.294;16.388;2022-07-06T01:51:19;99809.09;;;17.75;100.00
47726;BME280;33483;48.294;16.388;2022-07-06T01:53:48;99799.44;;;17.69;100.00
47726;BME280;33483;48.294;16.388;2022-07-06T01:56:19;99803.03;;;17.62;100.00
47726;BME280;33483;48.294;16.388;2022-07-06T01:58:51;99807.38;;;17.55;100.00
47726;BME280;33483;48.294;16.388;2022-07-06T02:01:21;99797.13;;;17.50;100.00
47726;BME280;33483;48.294;16.388;2022-07-06T02:03:48;99802.91;;;17.45;100.00
47726;BME280;33483;48.294;16.388;2022-07-06T02:06:21;99802.38;;;17.39;100.00
47726;BME280;33483;48.294;16.388;2022-07-06T02:08:49;99807.78;;;17.37;100.00
47726;BME280;33483;48.294;16.388;2022-07-06T02:11:19;99808.56;;;17.37;100.00
47726;BME280;33483;48.294;16.388;2022-07-06T02:13:49;99815.47;;;17.36;100.00
47726;BME280;33483;48.294;16.388;2022-07-06T02:16:16;99814.72;;;17.36;100.00
47726;BME280;33483;48.294;16.388;2022-07-06T02:18:44;99832.63;;;17.40;100.00
47726;BME280;33483;48.294;16.388;2022-07-06T02:21:23;99827.00;;;17.40;100.00
47726;BME280;33483;48.294;16.388;2022-07-06T02:24:08;99828.13;;;17.45;100.00
47726;BME280;33483;48.294;16.388;2022-07-06T02:26:36;99832.06;;;17.49;100.00
47726;BME280;33483;48.294;16.388;2022-07-06T02:29:03;99835.41;;;17.48;100.00
47726;BME280;33483;48.294;16.388;2022-07-06T02:31:31;99845.53;;;17.43;100.00
47726;BME280;33483;48.294;16.388;2022-07-06T02:33:59;99839.38;;;17.37;100.00
47726;BME280;33483;48.294;16.388;2022-07-06T02:36:26;99856.56;;;17.34;100.00
47726;BME280;33483;48.294;16.388;2022-07-06T02:38:53;99854.91;;;17.31;100.00
47726;BME280;33483;48.294;16.388;2022-07-06T02:41:23;99854.34;;;17.25;100.00
47726;BME280;33483;48.294;16.388;2022-07-06T02:43:51;99855.13;;;17.25;100.00
47726;BME280;33483;48.294;16.388;2022-07-06T02:46:19;99860.72;;;17.25;100.00
47726;BME280;33483;48.294;16.388;2022-07-06T02:48:46;99856.44;;;17.24;100.00
47726;BME280;33483;48.294;16.388;2022-07-06T02:51:17;99852.50;;;17.20;100.00
47726;BME280;33483;48.294;16.388;2022-07-06T02:53:44;99859.44;;;17.19;100.00
47726;BME280;33483;48.294;16.388;2022-07-06T02:56:12;99864.09;;;17.16;100.00
47726;BME280;33483;48.294;16.388;2022-07-06T02:58:40;99857.59;;;17.14;100.00
47726;BME280;33483;48.294;16.388;2022-07-06T03:01:07;99857.59;;;17.14;100.00
47726;BME280;33483;48.294;16.388;2022-07-06T03:03:36;99844.69;;;17.11;100.00
47726;BME280;33483;48.294;16.388;2022-07-06T03:06:05;99843.59;;;17.14;100.00
47726;BME280;33483;48.294;16.388;2022-07-06T03:08:32;99835.91;;;17.14;100.00
47726;BME280;33483;48.294;16.388;2022-07-06T03:11:02;99851.59;;;17.17;100.00
47726;BME280;33483;48.294;16.388;2022-07-06T03:13:29;99848.63;;;17.15;100.00
47726;BME280;33483;48.294;16.388;2022-07-06T03:15:56;99844.50;;;17.16;100.00
47726;BME280;33483;48.294;16.388;2022-07-06T03:18:24;99843.34;;;17.19;100.00
47726;BME280;33483;48.294;16.388;2022-07-06T03:20:54;99849.53;;;17.18;100.00
47726;BME280;33483;48.294;16.388;2022-07-06T03:23:21;99848.81;;;17.17;100.00
47726;BME280;33483;48.294;16.388;2022-07-06T03:25:50;99849.53;;;17.18;100.00
47726;BME280;33483;48.294;16.388;2022-07-06T03:28:17;99846.34;;;17.21;100.00
47726;BME280;33483;48.294;16.388;2022-07-06T03:30:52;99859.56;;;17.28;100.00
47726;BME280;33483;48.294;16.388;2022-07-06T03:33:23;99850.25;;;17.26;100.00
47726;BME280;33483;48.294;16.388;2022-07-06T03:35:52;99842.44;;;17.24;100.00
47726;BME280;33483;48.294;16.388;2022-07-06T03:38:20;99848.38;;;17.28;100.00
47726;BME280;33483;48.294;16.388;2022-07-06T03:40:48;99850.41;;;17.35;100.00
47726;BME280;33483;48.294;16.388;2022-07-06T03:43:16;99849.69;;;17.99;100.00
47726;BME280;33483;48.294;16.388;2022-07-06T03:45:45;99846.00;;;18.97;100.00
47726;BME280;33483;48.294;16.388;2022-07-06T03:48:12;99842.53;;;19.67;100.00
47726;BME280;33483;48.294;16.388;2022-07-06T03:50:42;99850.25;;;20.29;100.00
47726;BME280;33483;48.294;16.388;2022-07-06T03:53:12;99857.00;;;20.72;100.00
47726;BME280;33483;48.294;16.388;2022-07-06T03:55:41;99851.25;;;21.08;100.00
47726;BME280;33483;48.294;16.388;2022-07-06T03:58:10;99853.59;;;21.59;100.00
47726;BME280;33483;48.294;16.388;2022-07-06T04:00:40;99856.38;;;21.88;100.00
47726;BME280;33483;48.294;16.388;2022-07-06T04:03:14;99858.53;;;22.08;99.96
47726;BME280;33483;48.294;16.388;2022-07-06T04:05:47;99861.63;;;22.43;97.47
47726;BME280;33483;48.294;16.388;2022-07-06T04:08:15;99850.16;;;22.72;96.86
47726;BME280;33483;48.294;16.388;2022-07-06T04:10:49;99858.19;;;22.45;96.39
47726;BME280;33483;48.294;16.388;2022-07-06T04:13:16;99847.75;;;22.57;96.59
47726;BME280;33483;48.294;16.388;2022-07-06T04:15:44;99849.22;;;23.00;93.98
47726;BME280;33483;48.294;16.388;2022-07-06T04:18:12;99854.03;;;23.63;90.75
47726;BME280;33483;48.294;16.388;2022-07-06T04:20:47;99856.75;;;23.72;89.91
47726;BME280;33483;48.294;16.388;2022-07-06T04:23:15;99853.03;;;23.25;92.19
47726;BME280;33483;48.294;16.388;2022-07-06T04:25:42;99847.41;;;22.01;96.99
47726;BME280;33483;48.294;16.388;2022-07-06T04:28:12;99850.50;;;22.05;97.79
47726;BME280;33483;48.294;16.388;2022-07-06T04:30:42;99843.91;;;21.81;98.64
47726;BME280;33483;48.294;16.388;2022-07-06T04:33:13;99858.16;;;22.23;97.79
47726;BME280;33483;48.294;16.388;2022-07-06T04:35:43;99857.72;;;21.77;98.89
47726;BME280;33483;48.294;16.388;2022-07-06T04:38:11;99847.41;;;21.22;100.00
47726;BME280;33483;48.294;16.388;2022-07-06T04:40:39;99859.81;;;20.72;100.00
47726;BME280;33483;48.294;16.388;2022-07-06T04:43:11;99860.53;;;20.63;100.00
47726;BME280;33483;48.294;16.388;2022-07-06T04:45:41;99859.47;;;20.49;100.00
47726;BME280;33483;48.294;16.388;2022-07-06T04:48:09;99854.81;;;20.25;100.00
47726;BME280;33483;48.294;16.388;2022-07-06T04:50:37;99857.56;;;20.15;100.00
47726;BME280;33483;48.294;16.388;2022-07-06T04:53:10;99863.81;;;20.78;100.00
47726;BME280;33483;48.294;16.388;2022-07-06T04:55:38;99866.34;;;21.60;100.00
47726;BME280;33483;48.294;16.388;2022-07-06T04:58:06;99869.41;;;22.64;97.13
47726;BME280;33483;48.294;16.388;2022-07-06T05:00:33;99873.72;;;23.28;94.13
47726;BME280;33483;48.294;16.388;2022-07-06T05:03:01;99883.13;;;23.98;90.49
47726;BME280;33483;48.294;16.388;2022-07-06T05:05:29;99878.75;;;24.41;88.59
47726;BME280;33483;48.294;16.388;2022-07-06T05:07:58;99890.06;;;24.87;86.20
47726;BME280;33483;48.294;16.388;2022-07-06T05:10:26;99881.25;;;23.35;91.98
47726;BME280;33483;48.294;16.388;2022-07-06T05:12:57;99889.84;;;23.70;91.53
47726;BME280;33483;48.294;16.388;2022-07-06T05:15:27;99880.97;;;24.31;88.88
47726;BME280;33483;48.294;16.388;2022-07-06T05:18:00;99883.06;;;24.77;87.37
47726;BME280;33483;48.294;16.388;2022-07-06T05:20:33;99879.28;;;25.09;85.30
47726;BME280;33483;48.294;16.388;2022-07-06T05:23:00;99879.97;;;25.58;83.29
47726;BME280;33483;48.294;16.388;2022-07-06T05:25:31;99877.72;;;26.06;81.17
47726;BME280;33483;48.294;16.388;2022-07-06T05:28:03;99883.53;;;26.49;79.02
47726;BME280;33483;48.294;16.388;2022-07-06T05:30:32;99888.19;;;26.70;76.91
47726;BME280;33483;48.294;16.388;2022-07-06T05:32:59;99884.66;;;24.80;83.51
47726;BME280;33483;48.294;16.388;2022-07-06T05:35:26;99884.03;;;24.12;87.60
47726;BME280;33483;48.294;16.388;2022-07-06T05:38:15;99893.88;;;23.55;90.66
47726;BME280;33483;48.294;16.388;2022-07-06T05:40:45;99889.63;;;22.91;92.99
47726;BME280;33483;48.294;16.388;2022-07-06T05:43:17;99891.00;;;23.01;94.33
47726;BME280;33483;48.294;16.388;2022-07-06T05:45:44;99899.69;;;23.69;91.18
47726;BME280;33483;48.294;16.388;2022-07-06T05:48:14;99894.25;;;23.28;91.83
47726;BME280;33483;48.294;16.388;2022-07-06T05:51:01;99899.97;;;22.77;95.89
47726;BME280;33483;48.294;16.388;2022-07-06T05:53:29;99895.81;;;22.47;96.67
47726;BME280;33483;48.294;16.388;2022-07-06T05:55:56;99893.72;;;22.99;95.02
47726;BME280;33483;48.294;16.388;2022-07-06T05:58:25;99892.25;;;23.85;90.08
47726;BME280;33483;48.294;16.388;2022-07-06T06:00:58;99886.88;;;24.58;86.96
47726;BME280;33483;48.294;16.388;2022-07-06T06:03:25;99897.97;;;24.19;87.37
47726;BME280;33483;48.294;16.388;2022-07-06T06:05:52;99895.13;;;23.64;90.27
47726;BME280;33483;48.294;16.388;2022-07-06T06:08:22;99902.06;;;23.18;91.61
47726;BME280;33483;48.294;16.388;2022-07-06T06:10:52;99909.53;;;23.14;92.42
47726;BME280;33483;48.294;16.388;2022-07-06T06:13:24;99912.63;;;23.39;93.21
47726;BME280;33483;48.294;16.388;2022-07-06T06:15:51;99926.34;;;23.12;92.97
47726;BME280;33483;48.294;16.388;2022-07-06T06:18:26;99927.47;;;22.46;95.14
47726;BME280;33483;48.294;16.388;2022-07-06T06:20:55;99930.25;;;22.24;96.31
47726;BME280;33483;48.294;16.388;2022-07-06T06:23:24;99928.91;;;22.16;96.98
47726;BME280;33483;48.294;16.388;2022-07-06T06:25:53;99924.72;;;22.26;97.04
47726;BME280;33483;48.294;16.388;2022-07-06T06:28:20;99941.94;;;22.30;96.61
47726;BME280;33483;48.294;16.388;2022-07-06T06:30:48;99959.94;;;22.25;97.42
47726;BME280;33483;48.294;16.388;2022-07-06T06:33:20;99944.16;;;22.32;97.13
47726;BME280;33483;48.294;16.388;2022-07-06T06:35:49;99955.16;;;22.38;97.16
47726;BME280;33483;48.294;16.388;2022-07-06T06:38:19;99957.25;;;22.98;93.69
47726;BME280;33483;48.294;16.388;2022-07-06T06:40:50;99960.75;;;23.08;93.57
47726;BME280;33483;48.294;16.388;2022-07-06T06:43:17;99957.34;;;23.31;93.05
47726;BME280;33483;48.294;16.388;2022-07-06T06:46:04;99950.63;;;23.36;91.76
47726;BME280;33483;48.294;16.388;2022-07-06T06:48:31;99941.78;;;23.20;90.71
47726;BME280;33483;48.294;16.388;2022-07-06T06:50:58;99948.16;;;23.00;91.41
47726;BME280;33483;48.294;16.388;2022-07-06T06:53:26;99942.94;;;23.27;90.62
47726;BME280;33483;48.294;16.388;2022-07-06T06:55:53;99942.03;;;23.78;87.48
47726;BME280;33483;48.294;16.388;2022-07-06T06:58:22;99936.91;;;24.53;83.54
47726;BME280;33483;48.294;16.388;2022-07-06T07:00:50;99930.47;;;25.47;80.30
47726;BME280;33483;48.294;16.388;2022-07-06T07:03:18;99932.91;;;26.55;75.42
47726;BME280;33483;48.294;16.388;2022-07-06T07:05:45;99944.16;;;27.77;55.32
47726;BME280;33483;48.294;16.388;2022-07-06T07:08:12;99947.97;;;28.58;49.90
47726;BME280;33483;48.294;16.388;2022-07-06T07:10:42;99942.63;;;28.66;48.51
47726;BME280;33483;48.294;16.388;2022-07-06T07:13:09;99940.94;;;28.92;47.37
47726;BME280;33483;48.294;16.388;2022-07-06T07:15:42;99950.91;;;29.42;46.47
47726;BME280;33483;48.294;16.388;2022-07-06T07:18:11;99947.84;;;29.88;44.28
47726;BME280;33483;48.294;16.388;2022-07-06T07:20:44;99942.88;;;29.71;44.11
47726;BME280;33483;48.294;16.388;2022-07-06T07:23:14;99944.94;;;30.24;42.70
47726;BME280;33483;48.294;16.388;2022-07-06T07:25:44;99949.13;;;30.58;42.99
47726;BME280;33483;48.294;16.388;2022-07-06T07:28:12;99945.06;;;30.82;41.16
47726;BME280;33483;48.294;16.388;2022-07-06T07:30:42;99947.31;;;30.86;41.39
47726;BME280;33483;48.294;16.388;2022-07-06T07:33:09;99950.00;;;29.20;44.25
47726;BME280;33483;48.294;16.388;2022-07-06T07:35:39;99949.03;;;28.35;47.04
47726;BME280;33483;48.294;16.388;2022-07-06T07:38:06;99938.00;;;26.57;51.48
47726;BME280;33483;48.294;16.388;2022-07-06T07:40:33;99936.19;;;28.65;48.29
47726;BME280;33483;48.294;16.388;2022-07-06T07:43:02;99931.06;;;29.79;44.80
47726;BME280;33483;48.294;16.388;2022-07-06T07:45:29;99930.44;;;31.57;43.91
47726;BME280;33483;48.294;16.388;2022-07-06T07:47:57;99917.44;;;30.71;42.59
47726;BME280;33483;48.294;16.388;2022-07-06T07:50:25;99916.63;;;28.91;45.65
47726;BME280;33483;48.294;16.388;2022-07-06T07:52:58;99924.59;;;28.30;47.71
47726;BME280;33483;48.294;16.388;2022-07-06T07:55:25;99923.31;;;27.44;49.64
47726;BME280;33483;48.294;16.388;2022-07-06T07:58:07;99925.34;;;27.01;49.80
47726;BME280;33483;48.294;16.388;2022-07-06T08:00:38;99920.53;;;26.90;50.39
47726;BME280;33483;48.294;16.388;2022-07-06T08:03:05;99923.34;;;27.03;49.89
47726;BME280;33483;48.294;16.388;2022-07-06T08:05:34;99938.03;;;26.71;49.81
47726;BME280;33483;48.294;16.388;2022-07-06T08:08:05;99927.38;;;26.85;51.39
47726;BME280;33483;48.294;16.388;2022-07-06T08:10:32;99938.31;;;27.04;51.45
47726;BME280;33483;48.294;16.388;2022-07-06T08:13:20;99936.09;;;28.32;47.42
47726;BME280;33483;48.294;16.388;2022-07-06T08:15:47;99945.28;;;30.32;43.78
47726;BME280;33483;48.294;16.388;2022-07-06T08:18:14;99947.09;;;31.41;40.69
47726;BME280;33483;48.294;16.388;2022-07-06T08:20:41;99938.59;;;31.66;39.20
47726;BME280;33483;48.294;16.388;2022-07-06T08:23:29;99955.34;;;32.19;38.61
47726;BME280;33483;48.294;16.388;2022-07-06T08:25:56;99952.69;;;32.25;37.44
47726;BME280;33483;48.294;16.388;2022-07-06T08:28:23;99961.75;;;32.90;37.40
47726;BME280;33483;48.294;16.388;2022-07-06T08:30:53;99968.47;;;32.73;35.81
47726;BME280;33483;48.294;16.388;2022-07-06T08:33:21;99968.28;;;33.19;36.57
47726;BME280;33483;48.294;16.388;2022-07-06T08:35:49;99974.09;;;33.21;34.65
47726;BME280;33483;48.294;16.388;2022-07-06T08:38:16;99976.84;;;33.17;35.19
47726;BME280;33483;48.294;16.388;2022-07-06T08:40:48;99971.88;;;33.74;33.94
47726;BME280;33483;48.294;16.388;2022-07-06T08:43:18;99973.69;;;32.81;34.40
47726;BME280;33483;48.294;16.388;2022-07-06T08:45:48;99985.66;;;33.50;34.12
47726;BME280;33483;48.294;16.388;2022-07-06T08:48:17;99975.72;;;31.41;36.72
47726;BME280;33483;48.294;16.388;2022-07-06T08:50:47;99967.28;;;29.92;40.57
47726;BME280;33483;48.294;16.388;2022-07-06T08:53:17;99973.44;;;29.34;41.16
47726;BME280;33483;48.294;16.388;2022-07-06T08:55:44;99979.63;;;28.64;42.74
47726;BME280;33483;48.294;16.388;2022-07-06T08:58:11;99976.44;;;28.11;45.06
47726;BME280;33483;48.294;16.388;2022-07-06T09:00:42;99975.03;;;27.83;45.17
47726;BME280;33483;48.294;16.388;2022-07-06T09:03:12;99977.78;;;28.70;43.21
47726;BME280;33483;48.294;16.388;2022-07-06T09:05:45;99977.88;;;29.54;41.90
47726;BME280;33483;48.294;16.388;2022-07-06T09:08:23;99973.75;;;30.67;40.60
47726;BME280;33483;48.294;16.388;2022-07-06T09:10:50;99970.25;;;31.08;38.97
47726;BME280;33483;48.294;16.388;2022-07-06T09:13:21;99972.56;;;32.19;37.33
47726;BME280;33483;48.294;16.388;2022-07-06T09:15:51;99974.78;;;32.44;36.63
47726;BME280;33483;48.294;16.388;2022-07-06T09:18:36;99969.88;;;32.72;36.00
47726;BME280;33483;48.294;16.388;2022-07-06T09:21:06;99975.97;;;32.61;35.73
47726;BME280;33483;48.294;16.388;2022-07-06T09:23:36;99959.28;;;33.04;36.65
47726;BME280;33483;48.294;16.388;2022-07-06T09:26:05;99966.94;;;32.70;36.64
47726;BME280;33483;48.294;16.388;2022-07-06T09:28:43;99968.69;;;31.87;37.35
47726;BME280;33483;48.294;16.388;2022-07-06T09:31:13;99958.94;;;29.63;41.70
47726;BME280;33483;48.294;16.388;2022-07-06T09:34:00;99965.81;;;28.74;41.83
47726;BME280;33483;48.294;16.388;2022-07-06T09:36:48;99955.59;;;28.22;43.44
47726;BME280;33483;48.294;16.388;2022-07-06T09:41:51;99962.25;;;26.85;48.17
47726;BME280;33483;48.294;16.388;2022-07-06T09:44:31;99949.97;;;26.28;50.30
47726;BME280;33483;48.294;16.388;2022-07-06T09:47:03;99952.06;;;25.78;53.18
47726;BME280;33483;48.294;16.388;2022-07-06T09:49:31;99951.91;;;25.62;57.92
47726;BME280;33483;48.294;16.388;2022-07-06T09:52:00;99956.81;;;27.45;52.52
47726;BME280;33483;48.294;16.388;2022-07-06T09:54:29;99961.84;;;28.65;47.36
47726;BME280;33483;48.294;16.388;2022-07-06T09:56:58;99955.13;;;28.90;44.99
47726;BME280;33483;48.294;16.388;2022-07-06T09:59:31;99949.41;;;29.56;44.55
47726;BME280;33483;48.294;16.388;2022-07-06T10:02:00;99947.03;;;30.41;42.85
47726;BME280;33483;48.294;16.388;2022-07-06T10:04:29;99952.03;;;31.19;42.03
47726;BME280;33483;48.294;16.388;2022-07-06T10:06:57;99946.06;;;31.32;42.11
47726;BME280;33483;48.294;16.388;2022-07-06T10:09:29;99947.59;;;31.35;41.19
47726;BME280;33483;48.294;16.388;2022-07-06T10:12:00;99952.47;;;29.27;41.61
47726;BME280;33483;48.294;16.388;2022-07-06T10:14:32;99945.19;;;27.84;45.02
47726;BME280;33483;48.294;16.388;2022-07-06T10:17:03;99940.84;;;26.98;49.43
47726;BME280;33483;48.294;16.388;2022-07-06T10:19:36;99948.16;;;26.21;52.74
47726;BME280;33483;48.294;16.388;2022-07-06T10:22:04;99954.44;;;25.44;55.23
47726;BME280;33483;48.294;16.388;2022-07-06T10:24:31;99953.97;;;27.45;50.33
47726;BME280;33483;48.294;16.388;2022-07-06T10:27:02;99949.97;;;28.87;47.26
47726;BME280;33483;48.294;16.388;2022-07-06T10:29:30;99947.91;;;30.08;44.09
47726;BME280;33483;48.294;16.388;2022-07-06T10:31:59;99939.13;;;30.39;42.62
47726;BME280;33483;48.294;16.388;2022-07-06T10:34:27;99949.41;;;30.46;42.12
47726;BME280;33483;48.294;16.388;2022-07-06T10:36:54;99955.38;;;29.80;42.50
47726;BME280;33483;48.294;16.388;2022-07-06T10:39:35;99943.88;;;28.94;43.18
47726;BME280;33483;48.294;16.388;2022-07-06T10:42:55;99946.19;;;28.35;45.12
47726;BME280;33483;48.294;16.388;2022-07-06T10:53:13;99967.25;;;30.27;38.93
47726;BME280;33483;48.294;16.388;2022-07-06T10:55:45;99965.41;;;29.99;42.15
47726;BME280;33483;48.294;16.388;2022-07-06T10:58:42;99973.69;;;28.29;42.38
47726;BME280;33483;48.294;16.388;2022-07-06T11:01:14;99983.25;;;28.20;44.69
47726;BME280;33483;48.294;16.388;2022-07-06T11:06:25;99959.59;;;29.44;42.50
47726;BME280;33483;48.294;16.388;2022-07-06T11:08:54;99946.75;;;28.78;43.18
47726;BME280;33483;48.294;16.388;2022-07-06T11:14:11;99949.25;;;27.23;44.85
47726;BME280;33483;48.294;16.388;2022-07-06T11:17:01;99946.41;;;26.55;46.02
47726;BME280;33483;48.294;16.388;2022-07-06T11:19:34;99957.59;;;26.12;47.63
47726;BME280;33483;48.294;16.388;2022-07-06T11:22:08;99955.81;;;25.69;48.75
47726;BME280;33483;48.294;16.388;2022-07-06T11:24:42;99977.41;;;25.37;50.01
47726;BME280;33483;48.294;16.388;2022-07-06T11:27:09;99974.84;;;24.48;50.45
47726;BME280;33483;48.294;16.388;2022-07-06T11:29:36;99969.16;;;23.81;51.44
47726;BME280;33483;48.294;16.388;2022-07-06T11:32:09;99969.66;;;23.57;52.60
47726;BME280;33483;48.294;16.388;2022-07-06T11:34:42;99970.00;;;23.51;53.55
47726;BME280;33483;48.294;16.388;2022-07-06T11:37:12;99967.78;;;25.30;49.04
47726;BME280;33483;48.294;16.388;2022-07-06T11:39:43;99981.69;;;26.63;47.33
47726;BME280;33483;48.294;16.388;2022-07-06T11:42:12;99978.47;;;27.37;44.53
47726;BME280;33483;48.294;16.388;2022-07-06T11:44:41;99978.09;;;27.58;43.91
47726;BME280;33483;48.294;16.388;2022-07-06T11:47:11;99970.03;;;28.42;43.00
47726;BME280;33483;48.294;16.388;2022-07-06T11:49:50;99959.72;;;28.82;42.83
47726;BME280;33483;48.294;16.388;2022-07-06T11:52:21;99959.88;;;28.86;43.92
47726;BME280;33483;48.294;16.388;2022-07-06T11:54:57;99968.56;;;28.56;41.83
47726;BME280;33483;48.294;16.388;2022-07-06T11:57:26;99969.28;;;28.41;43.19
47726;BME280;33483;48.294;16.388;2022-07-06T11:59:59;99955.47;;;28.20;43.55
47726;BME280;33483;48.294;16.388;2022-07-06T12:02:26;99952.50;;;28.03;43.15
47726;BME280;33483;48.294;16.388;2022-07-06T12:04:53;99946.19;;;27.75;44.23
47726;BME280;33483;48.294;16.388;2022-07-06T12:07:23;99934.31;;;27.65;44.15
47726;BME280;33483;48.294;16.388;2022-07-06T12:09:50;99936.75;;;27.57;45.30
47726;BME280;33483;48.294;16.388;2022-07-06T12:12:17;99935.75;;;27.95;46.03
47726;BME280;33483;48.294;16.388;2022-07-06T12:14:45;99946.28;;;28.22;43.77
47726;BME280;33483;48.294;16.388;2022-07-06T12:17:14;99944.63;;;28.32;42.50
47726;BME280;33483;48.294;16.388;2022-07-06T12:19:42;99949.72;;;27.89;40.55
47726;BME280;33483;48.294;16.388;2022-07-06T12:22:10;99939.56;;;27.86;40.23
47726;BME280;33483;48.294;16.388;2022-07-06T12:27:52;99932.75;;;27.77;40.48
47726;BME280;33483;48.294;16.388;2022-07-06T12:30:19;99939.69;;;27.59;41.60
47726;BME280;33483;48.294;16.388;2022-07-06T12:33:14;99927.91;;;26.81;43.11
47726;BME280;33483;48.294;16.388;2022-07-06T12:35:45;99929.63;;;27.29;43.05
47726;BME280;33483;48.294;16.388;2022-07-06T12:38:12;99933.75;;;27.39;42.57
47726;BME280;33483;48.294;16.388;2022-07-06T12:40:40;99931.81;;;26.88;42.96
47726;BME280;33483;48.294;16.388;2022-07-06T12:43:07;99920.97;;;26.84;43.42
47726;BME280;33483;48.294;16.388;2022-07-06T12:45:34;99920.66;;;26.92;42.28
47726;BME280;33483;48.294;16.388;2022-07-06T12:48:04;99916.75;;;26.99;41.63
47726;BME280;33483;48.294;16.388;2022-07-06T12:50:39;99923.47;;;27.48;40.79
47726;BME280;33483;48.294;16.388;2022-07-06T12:53:25;99926.78;;;27.29;40.34
47726;BME280;33483;48.294;16.388;2022-07-06T12:56:13;99923.59;;;27.50;39.62
47726;BME280;33483;48.294;16.388;2022-07-06T12:58:58;99925.31;;;27.41;39.21
47726;BME280;33483;48.294;16.388;2022-07-06T13:01:28;99915.28;;;26.84;39.74
47726;BME280;33483;48.294;16.388;2022-07-06T13:03:56;99920.53;;;26.90;38.90
47726;BME280;33483;48.294;16.388;2022-07-06T13:06:31;99925.34;;;27.01;38.22
47726;BME280;33483;48.294;16.388;2022-07-06T13:09:01;99931.84;;;27.30;38.77
47726;BME280;33483;48.294;16.388;2022-07-06T13:11:28;99930.16;;;27.25;37.23
47726;BME280;33483;48.294;16.388;2022-07-06T13:13:55;99930.84;;;26.97;37.75
47726;BME280;33483;48.294;16.388;2022-07-06T13:16:23;99925.13;;;26.56;36.94
47726;BME280;33483;48.294;16.388;2022-07-06T13:18:57;99928.44;;;26.78;36.93
47726;BME280;33483;48.294;16.388;2022-07-06T13:21:25;99933.34;;;27.31;36.56
47726;BME280;33483;48.294;16.388;2022-07-06T13:23:54;99935.47;;;27.17;35.46
47726;BME280;33483;48.294;16.388;2022-07-06T13:26:21;99937.97;;;27.11;35.64